createdAt,value
2018-02-24T00:01:20.936Z,21.3
2018-02-24T00:16:15.681Z,21.3
2018-02-24T00:31:15.682Z,24.2
2018-02-24T00:46:15.706Z,22.7
2018-02-24T01:06:15.820Z,21.4
2018-02-24T01:21:15.812Z,19.7
2018-02-24T01:36:15.853Z,23.5
2018-02-24T01:56:15.716Z,17.6
2018-02-24T02:11:15.869Z,15.9
2018-02-24T02:26:15.781Z,19.6
2018-02-24T02:41:16.028Z,16.1
2018-02-24T03:01:15.984Z,19.3
2018-02-24T03:16:16.071Z,19.5
2018-02-24T03:31:16.037Z,21.6
2018-02-24T03:51:16.025Z,23.1
2018-02-24T04:06:16.002Z,21.3
2018-02-24T04:21:16.036Z,20.2
2018-02-24T04:36:16.445Z,19.1
2018-02-24T04:56:16.559Z,21.2
2018-02-24T05:11:16.696Z,22.5
2018-02-24T05:26:16.670Z,19.1
2018-02-24T05:41:16.581Z,20.8
2018-02-24T06:01:16.907Z,19.8
2018-02-24T06:16:16.785Z,19.7
2018-02-24T06:31:16.802Z,21.1
2018-02-24T06:51:16.657Z,22.9
2018-02-24T07:06:16.938Z,19.3
2018-02-24T07:21:16.933Z,21.4
2018-02-24T07:36:16.946Z,24.6
2018-02-24T07:56:16.779Z,21.5
2018-02-24T08:11:16.902Z,22.6
2018-02-24T08:26:17.170Z,21.5
2018-02-24T08:46:17.075Z,22.3
2018-02-24T09:01:17.616Z,20.9
2018-02-24T09:16:17.195Z,23.2
2018-02-24T09:31:20.031Z,19.5
2018-02-24T09:51:20.304Z,20.7
2018-02-24T10:06:20.546Z,17.7
2018-02-24T10:21:20.358Z,15.3
2018-02-24T10:36:20.331Z,16.6
2018-02-24T10:56:20.541Z,14
2018-02-24T11:11:20.627Z,11.7
2018-02-24T11:26:20.552Z,10.8
2018-02-24T11:46:20.510Z,11.6
2018-02-24T12:16:20.782Z,9.5
2018-02-24T12:31:20.640Z,9.8
2018-02-24T12:51:21.337Z,11.6
2018-02-24T13:06:21.041Z,9.9
2018-02-24T13:21:21.219Z,9.3
2018-02-24T13:41:21.159Z,8.9
2018-02-24T14:11:21.233Z,9.8
2018-02-24T14:26:28.708Z,9.9
2018-02-24T14:46:23.587Z,7.2
2018-02-24T15:01:23.649Z,11
2018-02-24T15:16:23.919Z,9.6
2018-02-24T15:36:23.940Z,10.3
2018-02-24T15:51:23.721Z,10.5
2018-02-24T16:06:23.957Z,14.9
2018-02-24T16:21:23.972Z,98.6
2018-02-24T16:41:24.013Z,155.9
2018-02-24T16:56:24.127Z,209
2018-02-24T17:11:23.994Z,241.2
2018-02-24T17:31:24.013Z,268.2
2018-02-24T17:46:24.136Z,286.9
2018-02-24T18:01:24.065Z,295.1
2018-02-24T18:16:24.037Z,354.3
2018-02-24T18:36:23.834Z,349.8
2018-02-24T18:51:23.827Z,360.9
2018-02-24T19:06:23.982Z,375.7
2018-02-24T23:11:29.708Z,178.7
